sensor_id;sensor_type;location;lat;lon;timestamp;pressure;altitude;pressure_sealevel;temperature;humidity
69980;BME280;57318;56.232;43.944;2023-04-20T00:01:58;99849.81;;;7.99;47.16
69980;BME280;57318;56.232;43.944;2023-04-20T00:04:32;99853.56;;;7.94;47.43
69980;BME280;57318;56.232;43.944;2023-04-20T00:06:58;99848.47;;;7.91;47.57
69980;BME280;57318;56.232;43.944;2023-04-20T00:09:25;99848.66;;;7.88;47.59
69980;BME280;57318;56.232;43.944;2023-04-20T00:11:52;99844.31;;;7.87;47.79
69980;BME280;57318;56.232;43.944;2023-04-20T00:14:18;99854.16;;;7.85;48.08
69980;BME280;57318;56.232;43.944;2023-04-20T00:16:44;99844.69;;;7.81;47.96
69980;BME280;57318;56.232;43.944;2023-04-20T00:19:10;99847.53;;;7.78;48.17
69980;BME280;57318;56.232;43.944;2023-04-20T00:21:36;99852.25;;;7.73;48.33
69980;BME280;57318;56.232;43.944;2023-04-20T00:24:02;99839.03;;;7.73;48.64
69980;BME280;57318;56.232;43.944;2023-04-20T00:26:28;99842.81;;;7.69;48.74
69980;BME280;57318;56.232;43.944;2023-04-20T00:28:54;99840.38;;;7.66;48.62
69980;BME280;57318;56.232;43.944;2023-04-20T00:31:20;99844.03;;;7.63;48.64
69980;BME280;57318;56.232;43.944;2023-04-20T00:33:47;99840.75;;;7.59;48.96
69980;BME280;57318;56.232;43.944;2023-04-20T00:36:12;99838.47;;;7.53;48.93
69980;BME280;57318;56.232;43.944;2023-04-20T00:38:38;99835.91;;;7.52;49.12
69980;BME280;57318;56.232;43.944;2023-04-20T00:41:04;99841.31;;;7.50;49.44
69980;BME280;57318;56.232;43.944;2023-04-20T00:43:30;99831.00;;;7.46;49.37
69980;BME280;57318;56.232;43.944;2023-04-20T00:45:56;99831.19;;;7.43;49.36
69980;BME280;57318;56.232;43.944;2023-04-20T00:48:21;99827.81;;;7.40;49.50
69980;BME280;57318;56.232;43.944;2023-04-20T00:50:48;99830.72;;;7.36;49.50
69980;BME280;57318;56.232;43.944;2023-04-20T00:53:15;99832.59;;;7.34;49.88
69980;BME280;57318;56.232;43.944;2023-04-20T00:55:42;99837.22;;;7.30;50.10
69980;BME280;57318;56.232;43.944;2023-04-20T00:58:08;99831.47;;;7.23;50.16
69980;BME280;57318;56.232;43.944;2023-04-20T01:00:34;99826.34;;;7.20;50.60
69980;BME280;57318;56.232;43.944;2023-04-20T01:03:00;99824.81;;;7.16;50.55
69980;BME280;57318;56.232;43.944;2023-04-20T01:05:26;99821.78;;;7.08;50.91
69980;BME280;57318;56.232;43.944;2023-04-20T01:07:51;99824.53;;;7.07;50.64
69980;BME280;57318;56.232;43.944;2023-04-20T01:10:17;99825.38;;;7.07;50.97
69980;BME280;57318;56.232;43.944;2023-04-20T01:12:45;99815.06;;;7.02;51.23
69980;BME280;57318;56.232;43.944;2023-04-20T01:15:11;99826.50;;;7.03;51.02
69980;BME280;57318;56.232;43.944;2023-04-20T01:17:36;99811.75;;;6.99;51.26
69980;BME280;57318;56.232;43.944;2023-04-20T01:20:06;99813.66;;;6.97;51.48
69980;BME280;57318;56.232;43.944;2023-04-20T01:22:48;99813.84;;;6.94;51.66
69980;BME280;57318;56.232;43.944;2023-04-20T01:25:14;99816.66;;;6.91;51.84
69980;BME280;57318;56.232;43.944;2023-04-20T01:27:40;99808.06;;;6.87;51.86
69980;BME280;57318;56.232;43.944;2023-04-20T01:30:07;99811.06;;;6.81;52.01
69980;BME280;57318;56.232;43.944;2023-04-20T01:32:33;99812.28;;;6.75;52.08
69980;BME280;57318;56.232;43.944;2023-04-20T01:34:59;99809.06;;;6.70;52.52
69980;BME280;57318;56.232;43.944;2023-04-20T01:37:26;99810.81;;;6.69;52.92
69980;BME280;57318;56.232;43.944;2023-04-20T01:39:51;99808.28;;;6.68;52.90
69980;BME280;57318;56.232;43.944;2023-04-20T01:42:17;99810.16;;;6.66;53.07
69980;BME280;57318;56.232;43.944;2023-04-20T01:44:43;99808.47;;;6.65;53.34
69980;BME280;57318;56.232;43.944;2023-04-20T01:47:08;99810.34;;;6.63;53.66
69980;BME280;57318;56.232;43.944;2023-04-20T01:49:34;99812.22;;;6.61;53.72
69980;BME280;57318;56.232;43.944;2023-04-20T01:52:00;99806.94;;;6.61;53.59
69980;BME280;57318;56.232;43.944;2023-04-20T01:54:25;99799.94;;;6.60;54.06
69980;BME280;57318;56.232;43.944;2023-04-20T01:56:51;99803.56;;;6.59;53.70
69980;BME280;57318;56.232;43.944;2023-04-20T01:59:17;99798.44;;;6.56;53.92
69980;BME280;57318;56.232;43.944;2023-04-20T02:01:43;99794.75;;;6.58;53.95
69980;BME280;57318;56.232;43.944;2023-04-20T02:04:08;99805.06;;;6.63;53.98
69980;BME280;57318;56.232;43.944;2023-04-20T02:06:34;99799.69;;;6.64;53.58
69980;BME280;57318;56.232;43.944;2023-04-20T02:09:00;99794.13;;;6.69;53.88
69980;BME280;57318;56.232;43.944;2023-04-20T02:11:25;99793.97;;;6.72;53.58
69980;BME280;57318;56.232;43.944;2023-04-20T02:13:51;99793.78;;;6.75;53.51
69980;BME280;57318;56.232;43.944;2023-04-20T02:16:17;99799.72;;;6.79;53.15
69980;BME280;57318;56.232;43.944;2023-04-20T02:18:46;99793.44;;;6.81;53.04
69980;BME280;57318;56.232;43.944;2023-04-20T02:21:12;99794.00;;;6.86;53.14
69980;BME280;57318;56.232;43.944;2023-04-20T02:23:37;99802.63;;;6.90;53.12
69980;BME280;57318;56.232;43.944;2023-04-20T02:26:03;99800.44;;;6.97;53.07
69980;BME280;57318;56.232;43.944;2023-04-20T02:28:29;99797.34;;;7.04;52.79
69980;BME280;57318;56.232;43.944;2023-04-20T02:30:55;99800.38;;;7.13;52.90
69980;BME280;57318;56.232;43.944;2023-04-20T02:33:20;99795.38;;;7.22;52.55
69980;BME280;57318;56.232;43.944;2023-04-20T02:35:47;99801.56;;;7.37;52.09
69980;BME280;57318;56.232;43.944;2023-04-20T02:38:13;99790.19;;;7.50;51.30
69980;BME280;57318;56.232;43.944;2023-04-20T02:40:39;99793.69;;;7.65;51.15
69980;BME280;57318;56.232;43.944;2023-04-20T02:43:05;99799.16;;;7.76;50.69
69980;BME280;57318;56.232;43.944;2023-04-20T02:45:31;99806.13;;;7.91;50.48
69980;BME280;57318;56.232;43.944;2023-04-20T02:47:57;99805.38;;;8.04;50.02
69980;BME280;57318;56.232;43.944;2023-04-20T02:50:23;99800.44;;;8.12;49.83
69980;BME280;57318;56.232;43.944;2023-04-20T02:52:48;99799.00;;;8.21;49.71
69980;BME280;57318;56.232;43.944;2023-04-20T02:55:14;99788.94;;;8.26;49.26
69980;BME280;57318;56.232;43.944;2023-04-20T02:57:40;99805.09;;;8.36;49.15
69980;BME280;57318;56.232;43.944;2023-04-20T03:00:07;99796.09;;;8.38;48.94
69980;BME280;57318;56.232;43.944;2023-04-20T03:02:38;99791.53;;;8.40;49.30
69980;BME280;57318;56.232;43.944;2023-04-20T03:05:04;99794.94;;;8.42;49.20
69980;BME280;57318;56.232;43.944;2023-04-20T03:07:30;99801.09;;;8.43;49.08
69980;BME280;57318;56.232;43.944;2023-04-20T03:09:56;99794.28;;;8.39;49.30
69980;BME280;57318;56.232;43.944;2023-04-20T03:12:22;99794.38;;;8.37;49.16
69980;BME280;57318;56.232;43.944;2023-04-20T03:14:48;99787.47;;;8.35;49.26
69980;BME280;57318;56.232;43.944;2023-04-20T03:17:13;99796.00;;;8.40;49.35
69980;BME280;57318;56.232;43.944;2023-04-20T03:19:39;99798.66;;;8.40;48.86
69980;BME280;57318;56.232;43.944;2023-04-20T03:22:06;99787.19;;;8.39;49.27
69980;BME280;57318;56.232;43.944;2023-04-20T03:24:33;99793.16;;;8.43;48.94
69980;BME280;57318;56.232;43.944;2023-04-20T03:26:58;99796.28;;;8.49;49.15
69980;BME280;57318;56.232;43.944;2023-04-20T03:29:24;99794.38;;;8.52;49.28
69980;BME280;57318;56.232;43.944;2023-04-20T03:31:50;99793.41;;;8.53;48.91
69980;BME280;57318;56.232;43.944;2023-04-20T03:34:15;99785.06;;;8.59;48.96
69980;BME280;57318;56.232;43.944;2023-04-20T03:36:41;99795.38;;;8.63;49.01
69980;BME280;57318;56.232;43.944;2023-04-20T03:39:07;99790.59;;;8.69;48.77
69980;BME280;57318;56.232;43.944;2023-04-20T03:41:34;99796.53;;;8.72;48.83
69980;BME280;57318;56.232;43.944;2023-04-20T03:43:59;99786.50;;;8.77;48.65
69980;BME280;57318;56.232;43.944;2023-04-20T03:46:25;99785.31;;;8.81;48.66
69980;BME280;57318;56.232;43.944;2023-04-20T03:48:51;99788.41;;;8.88;48.62
69980;BME280;57318;56.232;43.944;2023-04-20T03:51:17;99788.75;;;8.96;48.25
69980;BME280;57318;56.232;43.944;2023-04-20T03:53:42;99787.16;;;9.07;48.06
69980;BME280;57318;56.232;43.944;2023-04-20T03:56:08;99789.19;;;9.16;47.98
69980;BME280;57318;56.232;43.944;2023-04-20T03:58:34;99784.09;;;9.26;47.66
69980;BME280;57318;56.232;43.944;2023-04-20T04:01:04;99791.31;;;9.36;47.47
69980;BME280;57318;56.232;43.944;2023-04-20T04:03:33;99787.06;;;9.47;47.54
69980;BME280;57318;56.232;43.944;2023-04-20T04:05:59;99783.00;;;9.54;47.07
69980;BME280;57318;56.232;43.944;2023-04-20T04:08:24;99780.91;;;9.59;47.02
69980;BME280;57318;56.232;43.944;2023-04-20T04:10:51;99783.34;;;9.62;46.96
69980;BME280;57318;56.232;43.944;2023-04-20T04:13:16;99774.31;;;9.65;46.96
69980;BME280;57318;56.232;43.944;2023-04-20T04:15:42;99777.94;;;9.64;47.12
69980;BME280;57318;56.232;43.944;2023-04-20T04:18:08;99777.16;;;9.62;47.27
69980;BME280;57318;56.232;43.944;2023-04-20T04:20:34;99767.31;;;9.64;47.32
69980;BME280;57318;56.232;43.944;2023-04-20T04:22:59;99768.16;;;9.64;47.56
69980;BME280;57318;56.232;43.944;2023-04-20T04:25:25;99772.06;;;9.71;47.63
69980;BME280;57318;56.232;43.944;2023-04-20T04:27:51;99768.03;;;9.79;47.57
69980;BME280;57318;56.232;43.944;2023-04-20T04:30:17;99770.22;;;9.85;47.55
69980;BME280;57318;56.232;43.944;2023-04-20T04:32:44;99769.78;;;9.91;47.46
69980;BME280;57318;56.232;43.944;2023-04-20T04:35:12;99776.34;;;9.98;47.60
69980;BME280;57318;56.232;43.944;2023-04-20T04:37:38;99763.59;;;10.03;47.57
69980;BME280;57318;56.232;43.944;2023-04-20T04:40:04;99769.53;;;10.07;47.65
69980;BME280;57318;56.232;43.944;2023-04-20T04:42:36;99768.03;;;10.16;47.49
69980;BME280;57318;56.232;43.944;2023-04-20T04:45:02;99767.34;;;10.25;47.56
69980;BME280;57318;56.232;43.944;2023-04-20T04:47:35;99764.56;;;10.26;47.63
69980;BME280;57318;56.232;43.944;2023-04-20T04:50:05;99763.78;;;10.37;47.56
69980;BME280;57318;56.232;43.944;2023-04-20T04:52:32;99758.34;;;10.52;47.35
69980;BME280;57318;56.232;43.944;2023-04-20T04:54:58;99766.34;;;10.63;47.04
69980;BME280;57318;56.232;43.944;2023-04-20T04:57:24;99761.53;;;10.79;46.61
69980;BME280;57318;56.232;43.944;2023-04-20T04:59:51;99763.03;;;10.95;46.38
69980;BME280;57318;56.232;43.944;2023-04-20T05:02:17;99765.59;;;11.08;45.87
69980;BME280;57318;56.232;43.944;2023-04-20T05:04:42;99763.59;;;11.23;45.49
69980;BME280;57318;56.232;43.944;2023-04-20T05:07:08;99754.38;;;11.38;44.95
69980;BME280;57318;56.232;43.944;2023-04-20T05:09:35;99755.72;;;11.55;44.70
69980;BME280;57318;56.232;43.944;2023-04-20T05:12:02;99756.34;;;11.70;44.12
69980;BME280;57318;56.232;43.944;2023-04-20T05:14:31;99761.75;;;11.80;43.70
69980;BME280;57318;56.232;43.944;2023-04-20T05:17:01;99756.53;;;11.89;43.48
69980;BME280;57318;56.232;43.944;2023-04-20T05:19:26;99755.34;;;11.82;43.22
69980;BME280;57318;56.232;43.944;2023-04-20T05:21:52;99760.69;;;11.82;43.01
69980;BME280;57318;56.232;43.944;2023-04-20T05:24:18;99756.78;;;11.86;42.86
69980;BME280;57318;56.232;43.944;2023-04-20T05:26:44;99752.69;;;11.94;42.64
69980;BME280;57318;56.232;43.944;2023-04-20T05:29:11;99752.44;;;11.97;42.42
69980;BME280;57318;56.232;43.944;2023-04-20T05:31:36;99746.38;;;11.95;42.46
69980;BME280;57318;56.232;43.944;2023-04-20T05:34:02;99748.31;;;11.81;42.59
69980;BME280;57318;56.232;43.944;2023-04-20T05:36:28;99745.88;;;11.89;42.69
69980;BME280;57318;56.232;43.944;2023-04-20T05:38:55;99748.09;;;11.96;42.19
69980;BME280;57318;56.232;43.944;2023-04-20T05:41:21;99748.56;;;12.01;42.09
69980;BME280;57318;56.232;43.944;2023-04-20T05:43:53;99750.09;;;12.15;41.73
69980;BME280;57318;56.232;43.944;2023-04-20T05:46:19;99751.06;;;12.25;41.45
69980;BME280;57318;56.232;43.944;2023-04-20T05:48:45;99754.50;;;12.37;41.43
69980;BME280;57318;56.232;43.944;2023-04-20T05:51:11;99754.69;;;12.56;41.22
69980;BME280;57318;56.232;43.944;2023-04-20T05:53:37;99747.09;;;12.73;40.95
69980;BME280;57318;56.232;43.944;2023-04-20T05:56:03;99756.91;;;12.93;40.49
69980;BME280;57318;56.232;43.944;2023-04-20T05:58:31;99742.31;;;13.18;39.85
69980;BME280;57318;56.232;43.944;2023-04-20T06:00:58;99750.88;;;13.33;39.36
69980;BME280;57318;56.232;43.944;2023-04-20T06:03:24;99743.72;;;13.44;39.01
69980;BME280;57318;56.232;43.944;2023-04-20T06:05:49;99744.38;;;13.57;38.61
69980;BME280;57318;56.232;43.944;2023-04-20T06:08:16;99730.88;;;13.59;38.68
69980;BME280;57318;56.232;43.944;2023-04-20T06:10:43;99740.22;;;13.74;38.09
69980;BME280;57318;56.232;43.944;2023-04-20T06:13:09;99738.00;;;13.99;37.48
69980;BME280;57318;56.232;43.944;2023-04-20T06:15:35;99745.38;;;14.26;37.20
69980;BME280;57318;56.232;43.944;2023-04-20T06:18:01;99746.09;;;14.57;36.68
69980;BME280;57318;56.232;43.944;2023-04-20T06:20:27;99744.56;;;15.69;34.85
69980;BME280;57318;56.232;43.944;2023-04-20T06:22:53;99751.53;;;17.42;31.87
69980;BME280;57318;56.232;43.944;2023-04-20T06:25:19;99743.63;;;19.41;29.00
69980;BME280;57318;56.232;43.944;2023-04-20T06:27:46;99739.34;;;21.78;26.05
69980;BME280;57318;56.232;43.944;2023-04-20T06:30:12;99747.34;;;22.81;24.21
69980;BME280;57318;56.232;43.944;2023-04-20T06:32:38;99736.53;;;22.59;24.01
69980;BME280;57318;56.232;43.944;2023-04-20T06:35:05;99740.50;;;22.05;24.19
69980;BME280;57318;56.232;43.944;2023-04-20T06:37:34;99743.63;;;21.87;24.26
69980;BME280;57318;56.232;43.944;2023-04-20T06:39:59;99754.31;;;23.12;22.71
69980;BME280;57318;56.232;43.944;2023-04-20T06:42:25;99750.22;;;25.08;20.29
69980;BME280;57318;56.232;43.944;2023-04-20T06:44:51;99739.25;;;26.58;17.66
69980;BME280;57318;56.232;43.944;2023-04-20T06:47:17;99751.88;;;27.90;16.17
69980;BME280;57318;56.232;43.944;2023-04-20T06:49:42;99745.84;;;28.91;13.97
69980;BME280;57318;56.232;43.944;2023-04-20T06:52:08;99749.78;;;29.43;13.93
69980;BME280;57318;56.232;43.944;2023-04-20T06:54:34;99745.91;;;29.91;13.61
69980;BME280;57318;56.232;43.944;2023-04-20T06:57:00;99743.28;;;30.25;12.47
69980;BME280;57318;56.232;43.944;2023-04-20T06:59:26;99744.06;;;30.09;12.33
69980;BME280;57318;56.232;43.944;2023-04-20T07:01:51;99738.53;;;29.92;12.41
69980;BME280;57318;56.232;43.944;2023-04-20T07:04:17;99743.97;;;30.03;12.78
69980;BME280;57318;56.232;43.944;2023-04-20T07:06:43;99736.72;;;30.55;12.30
69980;BME280;57318;56.232;43.944;2023-04-20T07:09:09;99735.75;;;31.51;11.66
69980;BME280;57318;56.232;43.944;2023-04-20T07:11:34;99739.25;;;32.35;10.75
69980;BME280;57318;56.232;43.944;2023-04-20T07:14:00;99736.19;;;32.86;10.63
69980;BME280;57318;56.232;43.944;2023-04-20T07:16:26;99737.91;;;33.35;10.12
69980;BME280;57318;56.232;43.944;2023-04-20T07:18:51;99730.69;;;33.23;9.37
69980;BME280;57318;56.232;43.944;2023-04-20T07:21:17;99731.34;;;33.41;9.36
69980;BME280;57318;56.232;43.944;2023-04-20T07:23:42;99726.91;;;34.03;9.33
69980;BME280;57318;56.232;43.944;2023-04-20T07:26:08;99724.56;;;34.63;8.87
69980;BME280;57318;56.232;43.944;2023-04-20T07:28:34;99718.78;;;35.06;8.62
69980;BME280;57318;56.232;43.944;2023-04-20T07:31:00;99726.38;;;35.55;8.06
69980;BME280;57318;56.232;43.944;2023-04-20T07:33:26;99727.06;;;34.80;8.33
69980;BME280;57318;56.232;43.944;2023-04-20T07:35:54;99721.25;;;34.82;7.73
69980;BME280;57318;56.232;43.944;2023-04-20T07:38:19;99716.28;;;34.99;7.37
69980;BME280;57318;56.232;43.944;2023-04-20T07:40:45;99730.75;;;33.87;7.83
69980;BME280;57318;56.232;43.944;2023-04-20T07:43:11;99715.97;;;33.55;8.15
69980;BME280;57318;56.232;43.944;2023-04-20T07:45:39;99711.44;;;33.29;7.75
69980;BME280;57318;56.232;43.944;2023-04-20T07:48:06;99711.22;;;34.04;7.61
69980;BME280;57318;56.232;43.944;2023-04-20T07:50:34;99710.47;;;34.65;7.03
69980;BME280;57318;56.232;43.944;2023-04-20T07:53:00;99707.72;;;34.65;7.19
69980;BME280;57318;56.232;43.944;2023-04-20T07:55:26;99703.31;;;34.69;7.51
69980;BME280;57318;56.232;43.944;2023-04-20T07:57:52;99703.84;;;34.30;7.39
69980;BME280;57318;56.232;43.944;2023-04-20T08:00:18;99710.47;;;34.60;7.21
69980;BME280;57318;56.232;43.944;2023-04-20T08:02:45;99696.13;;;34.83;7.08
69980;BME280;57318;56.232;43.944;2023-04-20T08:05:10;99695.47;;;35.53;6.89
69980;BME280;57318;56.232;43.944;2023-04-20T08:07:37;99690.00;;;35.28;6.39
69980;BME280;57318;56.232;43.944;2023-04-20T08:10:03;99689.72;;;35.34;6.79
69980;BME280;57318;56.232;43.944;2023-04-20T08:12:34;99695.00;;;35.96;6.54
69980;BME280;57318;56.232;43.944;2023-04-20T08:15:00;99696.13;;;36.40;5.34
69980;BME280;57318;56.232;43.944;2023-04-20T08:17:33;99680.84;;;36.42;5.41
69980;BME280;57318;56.232;43.944;2023-04-20T08:19:58;99687.94;;;36.19;5.14
69980;BME280;57318;56.232;43.944;2023-04-20T08:22:24;99672.09;;;35.85;5.00
69980;BME280;57318;56.232;43.944;2023-04-20T08:24:57;99673.25;;;36.19;4.95
69980;BME280;57318;56.232;43.944;2023-04-20T08:27:23;99667.47;;;36.25;5.03
69980;BME280;57318;56.232;43.944;2023-04-20T08:29:49;99674.63;;;36.21;5.46
69980;BME280;57318;56.232;43.944;2023-04-20T08:32:15;99679.06;;;35.72;5.39
69980;BME280;57318;56.232;43.944;2023-04-20T08:34:43;99666.78;;;36.39;5.75
69980;BME280;57318;56.232;43.944;2023-04-20T08:37:09;99668.28;;;35.71;5.47
69980;BME280;57318;56.232;43.944;2023-04-20T08:39:35;99678.38;;;35.41;5.49
69980;BME280;57318;56.232;43.944;2023-04-20T08:42:02;99663.50;;;36.31;5.10
69980;BME280;57318;56.232;43.944;2023-04-20T08:44:28;99665.34;;;36.81;5.21
69980;BME280;57318;56.232;43.944;2023-04-20T08:46:53;99662.63;;;37.29;5.00
69980;BME280;57318;56.232;43.944;2023-04-20T08:49:19;99672.78;;;37.10;5.48
69980;BME280;57318;56.232;43.944;2023-04-20T08:51:48;99664.56;;;37.29;4.96
69980;BME280;57318;56.232;43.944;2023-04-20T08:54:14;99664.09;;;37.65;5.02
69980;BME280;57318;56.232;43.944;2023-04-20T08:56:42;99665.59;;;38.19;4.62
69980;BME280;57318;56.232;43.944;2023-04-20T08:59:09;99661.97;;;38.71;4.75
69980;BME280;57318;56.232;43.944;2023-04-20T09:01:36;99668.56;;;37.85;4.79
69980;BME280;57318;56.232;43.944;2023-04-20T09:04:13;99653.78;;;37.46;5.13
69980;BME280;57318;56.232;43.944;2023-04-20T09:06:42;99661.88;;;37.67;4.82
69980;BME280;57318;56.232;43.944;2023-04-20T09:09:11;99661.59;;;38.06;4.70
69980;BME280;57318;56.232;43.944;2023-04-20T09:11:38;99656.56;;;37.70;4.65
69980;BME280;57318;56.232;43.944;2023-04-20T09:14:09;99641.03;;;38.45;4.60
69980;BME280;57318;56.232;43.944;2023-04-20T09:16:47;99638.50;;;38.30;4.60
69980;BME280;57318;56.232;43.944;2023-04-20T09:19:13;99650.19;;;38.93;4.49
69980;BME280;57318;56.232;43.944;2023-04-20T09:21:50;99635.56;;;39.57;4.12
69980;BME280;57318;56.232;43.944;2023-04-20T09:24:19;99631.25;;;40.01;3.86
69980;BME280;57318;56.232;43.944;2023-04-20T09:26:45;99632.25;;;40.28;4.07
69980;BME280;57318;56.232;43.944;2023-04-20T09:29:22;99626.41;;;40.83;3.92
69980;BME280;57318;56.232;43.944;2023-04-20T09:31:50;99632.19;;;41.36;3.76
69980;BME280;57318;56.232;43.944;2023-04-20T09:34:16;99625.69;;;41.66;3.74
69980;BME280;57318;56.232;43.944;2023-04-20T09:36:45;99632.94;;;41.94;3.22
69980;BME280;57318;56.232;43.944;2023-04-20T09:39:13;99619.69;;;41.24;3.57
69980;BME280;57318;56.232;43.944;2023-04-20T09:41:41;99612.66;;;40.55;3.87
69980;BME280;57318;56.232;43.944;2023-04-20T09:44:08;99618.44;;;40.99;3.59
69980;BME280;57318;56.232;43.944;2023-04-20T09:46:36;99610.59;;;41.01;3.53
69980;BME280;57318;56.232;43.944;2023-04-20T09:49:04;99603.31;;;41.32;3.53
69980;BME280;57318;56.232;43.944;2023-04-20T09:51:35;99600.88;;;38.98;4.39
69980;BME280;57318;56.232;43.944;2023-04-20T09:54:03;99601.88;;;37.09;5.16
69980;BME280;57318;56.232;43.944;2023-04-20T09:56:30;99592.38;;;35.98;5.64
69980;BME280;57318;56.232;43.944;2023-04-20T09:58:57;99587.69;;;34.62;6.02
69980;BME280;57318;56.232;43.944;2023-04-20T10:01:24;99595.50;;;35.86;5.90
69980;BME280;57318;56.232;43.944;2023-04-20T10:03:51;99596.16;;;37.00;5.33
69980;BME280;57318;56.232;43.944;2023-04-20T10:06:28;99588.72;;;37.19;5.12
69980;BME280;57318;56.232;43.944;2023-04-20T10:08:55;99589.22;;;37.46;5.11
69980;BME280;57318;56.232;43.944;2023-04-20T10:11:35;99581.50;;;38.52;4.61
69980;BME280;57318;56.232;43.944;2023-04-20T10:14:16;99588.03;;;39.03;4.49
69980;BME280;57318;56.232;43.944;2023-04-20T10:16:43;99584.72;;;39.56;4.27
69980;BME280;57318;56.232;43.944;2023-04-20T10:19:09;99583.13;;;40.46;3.97
69980;BME280;57318;56.232;43.944;2023-04-20T10:21:46;99588.53;;;40.82;3.68
69980;BME280;57318;56.232;43.944;2023-04-20T10:24:13;99577.78;;;40.89;3.66
69980;BME280;57318;56.232;43.944;2023-04-20T10:26:43;99576.66;;;40.99;3.66
69980;BME280;57318;56.232;43.944;2023-04-20T10:29:23;99569.34;;;41.21;3.36
69980;BME280;57318;56.232;43.944;2023-04-20T10:31:53;99574.50;;;41.80;3.39
69980;BME280;57318;56.232;43.944;2023-04-20T10:34:32;99570.72;;;41.93;3.14
69980;BME280;57318;56.232;43.944;2023-04-20T10:37:11;99570.03;;;41.70;2.87
69980;BME280;57318;56.232;43.944;2023-04-20T10:39:44;99576.59;;;42.00;2.83
69980;BME280;57318;56.232;43.944;2023-04-20T10:42:11;99558.91;;;41.96;3.22
69980;BME280;57318;56.232;43.944;2023-04-20T10:44:49;99561.66;;;42.23;2.72
69980;BME280;57318;56.232;43.944;2023-04-20T10:47:16;99554.41;;;42.30;2.65
69980;BME280;57318;56.232;43.944;2023-04-20T10:49:43;99547.66;;;41.09;3.86
69980;BME280;57318;56.232;43.944;2023-04-20T10:52:09;99535.81;;;40.54;3.85
69980;BME280;57318;56.232;43.944;2023-04-20T10:54:39;99534.69;;;40.55;3.91
69980;BME280;57318;56.232;43.944;2023-04-20T10:57:05;99532.25;;;40.31;3.77
69980;BME280;57318;56.232;43.944;2023-04-20T10:59:31;99526.94;;;39.76;3.85
69980;BME280;57318;56.232;43.944;2023-04-20T11:01:59;99515.56;;;39.27;3.84
69980;BME280;57318;56.232;43.944;2023-04-20T11:04:32;99520.06;;;39.37;4.13
69980;BME280;57318;56.232;43.944;2023-04-20T11:07:09;99518.63;;;39.39;3.95
69980;BME280;57318;56.232;43.944;2023-04-20T11:09:35;99521.03;;;39.68;3.91
69980;BME280;57318;56.232;43.944;2023-04-20T11:12:07;99513.63;;;38.44;4.17
69980;BME280;57318;56.232;43.944;2023-04-20T11:14:38;99507.53;;;38.42;4.25
69980;BME280;57318;56.232;43.944;2023-04-20T11:17:05;99506.25;;;38.06;4.53
69980;BME280;57318;56.232;43.944;2023-04-20T11:19:32;99503.03;;;38.46;4.39
69980;BME280;57318;56.232;43.944;2023-04-20T11:22:00;99496.69;;;38.87;4.14
69980;BME280;57318;56.232;43.944;2023-04-20T11:24:28;99497.69;;;39.05;4.09
69980;BME280;57318;56.232;43.944;2023-04-20T11:26:55;99492.47;;;38.62;4.26
69980;BME280;57318;56.232;43.944;2023-04-20T11:29:30;99481.28;;;38.06;4.51
69980;BME280;57318;56.232;43.944;2023-04-20T11:31:58;99466.72;;;35.45;5.59
69980;BME280;57318;56.232;43.944;2023-04-20T11:34:25;99467.75;;;33.67;6.22
69980;BME280;57318;56.232;43.944;2023-04-20T11:36:51;99467.75;;;34.13;6.21
69980;BME280;57318;56.232;43.944;2023-04-20T11:39:26;99464.16;;;34.13;6.12
69980;BME280;57318;56.232;43.944;2023-04-20T11:41:54;99458.78;;;32.93;6.85
69980;BME280;57318;56.232;43.944;2023-04-20T11:44:23;99462.53;;;31.81;7.30
69980;BME280;57318;56.232;43.944;2023-04-20T11:46:49;99458.78;;;32.88;6.83
69980;BME280;57318;56.232;43.944;2023-04-20T11:49:16;99456.50;;;33.94;6.09
69980;BME280;57318;56.232;43.944;2023-04-20T11:51:41;99450.66;;;33.24;6.15
69980;BME280;57318;56.232;43.944;2023-04-20T11:54:08;99455.22;;;31.97;6.71
69980;BME280;57318;56.232;43.944;2023-04-20T11:56:34;99438.41;;;30.57;7.13
69980;BME280;57318;56.232;43.944;2023-04-20T11:59:01;99429.75;;;29.12;8.13
69980;BME280;57318;56.232;43.944;2023-04-20T12:01:27;99444.81;;;28.34;8.43
69980;BME280;57318;56.232;43.944;2023-04-20T12:03:53;99429.88;;;27.35;9.01
69980;BME280;57318;56.232;43.944;2023-04-20T12:06:20;99426.22;;;26.43;9.66
69980;BME280;57318;56.232;43.944;2023-04-20T12:08:46;99418.44;;;25.60;10.16
69980;BME280;57318;56.232;43.944;2023-04-20T12:11:15;99410.88;;;24.91;10.51
69980;BME280;57318;56.232;43.944;2023-04-20T12:13:43;99405.50;;;24.26;10.77
69980;BME280;57318;56.232;43.944;2023-04-20T12:16:09;99405.56;;;23.72;11.36
69980;BME280;57318;56.232;43.944;2023-04-20T12:18:34;99405.94;;;23.16;11.70
69980;BME280;57318;56.232;43.944;2023-04-20T12:21:00;99408.34;;;22.91;12.28
69980;BME280;57318;56.232;43.944;2023-04-20T12:23:26;99403.69;;;22.71;12.77
69980;BME280;57318;56.232;43.944;2023-04-20T12:25:52;99391.13;;;22.57;13.57
69980;BME280;57318;56.232;43.944;2023-04-20T12:28:18;99397.56;;;22.49;13.23
69980;BME280;57318;56.232;43.944;2023-04-20T12:30:43;99392.94;;;22.08;13.58
69980;BME280;57318;56.232;43.944;2023-04-20T12:33:09;99393.25;;;21.91;13.56
69980;BME280;57318;56.232;43.944;2023-04-20T12:35:35;99379.88;;;21.83;13.61
69980;BME280;57318;56.232;43.944;2023-04-20T12:38:00;99374.38;;;21.70;13.58
69980;BME280;57318;56.232;43.944;2023-04-20T12:40:26;99382.84;;;21.38;14.23
69980;BME280;57318;56.232;43.944;2023-04-20T12:42:52;99381.34;;;21.14;14.52
69980;BME280;57318;56.232;43.944;2023-04-20T12:45:18;99376.22;;;20.98;14.81
69980;BME280;57318;56.232;43.944;2023-04-20T12:47:44;99379.63;;;20.70;15.02
69980;BME280;57318;56.232;43.944;2023-04-20T12:50:10;99374.81;;;20.50;15.09
69980;BME280;57318;56.232;43.944;2023-04-20T12:52:36;99373.00;;;20.36;15.26
69980;BME280;57318;56.232;43.944;2023-04-20T12:55:02;99360.06;;;20.16;15.47
69980;BME280;57318;56.232;43.944;2023-04-20T12:57:30;99371.78;;;19.94;15.83